sensor_id;sensor_type;location;lat;lon;timestamp;temperature;humidity
10175;DHT22;18221;38.704;0.152;2023-03-01T00:02:53;8.30;99.90
10175;DHT22;18221;38.704;0.152;2023-03-01T00:05:21;8.20;99.90
10175;DHT22;18221;38.704;0.152;2023-03-01T00:07:52;8.20;99.90
10175;DHT22;18221;38.704;0.152;2023-03-01T00:10:21;8.20;99.90
10175;DHT22;18221;38.704;0.152;2023-03-01T00:12:49;8.20;99.90
10175;DHT22;18221;38.704;0.152;2023-03-01T00:15:17;8.20;99.90
10175;DHT22;18221;38.704;0.152;2023-03-01T00:17:46;8.20;99.90
10175;DHT22;18221;38.704;0.152;2023-03-01T00:20:16;8.20;99.90
10175;DHT22;18221;38.704;0.152;2023-03-01T00:22:44;8.10;99.90
10175;DHT22;18221;38.704;0.152;2023-03-01T00:25:13;8.10;99.90
10175;DHT22;18221;38.704;0.152;2023-03-01T00:27:41;8.10;99.90
10175;DHT22;18221;38.704;0.152;2023-03-01T00:30:10;8.00;99.90
10175;DHT22;18221;38.704;0.152;2023-03-01T00:32:39;8.00;99.90
10175;DHT22;18221;38.704;0.152;2023-03-01T00:35:08;8.00;99.90
10175;DHT22;18221;38.704;0.152;2023-03-01T00:37:38;8.00;99.90
10175;DHT22;18221;38.704;0.152;2023-03-01T00:40:11;7.90;99.90
10175;DHT22;18221;38.704;0.152;2023-03-01T00:42:42;7.90;99.90
10175;DHT22;18221;38.704;0.152;2023-03-01T00:45:10;7.90;99.90
10175;DHT22;18221;38.704;0.152;2023-03-01T00:47:39;7.90;99.90
10175;DHT22;18221;38.704;0.152;2023-03-01T00:50:08;7.90;99.90
10175;DHT22;18221;38.704;0.152;2023-03-01T00:52:39;7.90;99.90
10175;DHT22;18221;38.704;0.152;2023-03-01T00:55:08;7.80;99.90
10175;DHT22;18221;38.704;0.152;2023-03-01T00:57:37;7.80;99.90
10175;DHT22;18221;38.704;0.152;2023-03-01T01:00:06;7.80;99.90
10175;DHT22;18221;38.704;0.152;2023-03-01T01:02:35;7.80;99.90
10175;DHT22;18221;38.704;0.152;2023-03-01T01:05:05;7.80;99.90
10175;DHT22;18221;38.704;0.152;2023-03-01T01:07:34;7.70;99.90
10175;DHT22;18221;38.704;0.152;2023-03-01T01:10:05;7.80;99.90
10175;DHT22;18221;38.704;0.152;2023-03-01T01:12:34;7.80;99.90
10175;DHT22;18221;38.704;0.152;2023-03-01T01:15:02;7.70;99.90
10175;DHT22;18221;38.704;0.152;2023-03-01T01:17:30;7.70;99.90
10175;DHT22;18221;38.704;0.152;2023-03-01T01:19:58;7.70;99.90
10175;DHT22;18221;38.704;0.152;2023-03-01T01:22:27;7.70;99.90
10175;DHT22;18221;38.704;0.152;2023-03-01T01:24:55;7.70;99.90
10175;DHT22;18221;38.704;0.152;2023-03-01T01:27:25;7.60;99.90
10175;DHT22;18221;38.704;0.152;2023-03-01T01:29:53;7.60;99.90
10175;DHT22;18221;38.704;0.152;2023-03-01T01:32:23;7.60;99.90
10175;DHT22;18221;38.704;0.152;2023-03-01T01:34:51;7.60;99.90
10175;DHT22;18221;38.704;0.152;2023-03-01T01:37:19;7.60;99.90
10175;DHT22;18221;38.704;0.152;2023-03-01T01:39:47;7.60;99.90
10175;DHT22;18221;38.704;0.152;2023-03-01T01:42:17;7.60;99.90
10175;DHT22;18221;38.704;0.152;2023-03-01T01:44:47;7.60;99.90
10175;DHT22;18221;38.704;0.152;2023-03-01T01:47:18;7.60;99.90
10175;DHT22;18221;38.704;0.152;2023-03-01T01:49:52;7.70;99.90
10175;DHT22;18221;38.704;0.152;2023-03-01T01:52:27;7.70;99.90
10175;DHT22;18221;38.704;0.152;2023-03-01T01:55:03;7.70;99.90
10175;DHT22;18221;38.704;0.152;2023-03-01T01:57:37;7.70;99.90
10175;DHT22;18221;38.704;0.152;2023-03-01T02:00:13;7.60;99.90
10175;DHT22;18221;38.704;0.152;2023-03-01T02:02:44;7.70;99.90
10175;DHT22;18221;38.704;0.152;2023-03-01T02:05:20;7.60;99.90
10175;DHT22;18221;38.704;0.152;2023-03-01T02:07:53;7.60;99.90
10175;DHT22;18221;38.704;0.152;2023-03-01T02:10:23;7.60;99.90
10175;DHT22;18221;38.704;0.152;2023-03-01T02:12:52;7.60;99.90
10175;DHT22;18221;38.704;0.152;2023-03-01T02:15:23;7.60;99.90
10175;DHT22;18221;38.704;0.152;2023-03-01T02:17:52;7.60;99.90
10175;DHT22;18221;38.704;0.152;2023-03-01T02:20:26;7.60;99.90
10175;DHT22;18221;38.704;0.152;2023-03-01T02:23:00;7.60;99.90
10175;DHT22;18221;38.704;0.152;2023-03-01T02:25:36;7.60;99.90
10175;DHT22;18221;38.704;0.152;2023-03-01T02:28:27;7.60;99.90
10175;DHT22;18221;38.704;0.152;2023-03-01T02:30:58;7.60;99.90
10175;DHT22;18221;38.704;0.152;2023-03-01T02:33:43;7.70;99.90
10175;DHT22;18221;38.704;0.152;2023-03-01T02:36:16;7.70;99.90
10175;DHT22;18221;38.704;0.152;2023-03-01T02:38:47;7.80;99.90
10175;DHT22;18221;38.704;0.152;2023-03-01T02:41:19;7.80;99.90
10175;DHT22;18221;38.704;0.152;2023-03-01T02:43:50;7.80;99.90
10175;DHT22;18221;38.704;0.152;2023-03-01T02:46:21;7.80;99.90
10175;DHT22;18221;38.704;0.152;2023-03-01T02:48:52;7.90;99.90
10175;DHT22;18221;38.704;0.152;2023-03-01T02:51:38;7.90;99.90
10175;DHT22;18221;38.704;0.152;2023-03-01T02:54:21;7.90;99.90
10175;DHT22;18221;38.704;0.152;2023-03-01T02:56:54;7.90;99.90
10175;DHT22;18221;38.704;0.152;2023-03-01T02:59:29;7.90;99.90
10175;DHT22;18221;38.704;0.152;2023-03-01T03:02:01;7.90;99.90
10175;DHT22;18221;38.704;0.152;2023-03-01T03:04:29;7.90;99.90
10175;DHT22;18221;38.704;0.152;2023-03-01T03:06:57;7.90;99.90
10175;DHT22;18221;38.704;0.152;2023-03-01T03:09:26;7.90;99.90
10175;DHT22;18221;38.704;0.152;2023-03-01T03:11:54;7.90;99.90
10175;DHT22;18221;38.704;0.152;2023-03-01T03:14:24;7.90;99.90
10175;DHT22;18221;38.704;0.152;2023-03-01T03:16:52;7.90;99.90
10175;DHT22;18221;38.704;0.152;2023-03-01T03:19:20;7.90;99.90
10175;DHT22;18221;38.704;0.152;2023-03-01T03:21:48;7.90;99.90
10175;DHT22;18221;38.704;0.152;2023-03-01T03:24:16;7.80;99.90
10175;DHT22;18221;38.704;0.152;2023-03-01T03:26:44;7.80;99.90
10175;DHT22;18221;38.704;0.152;2023-03-01T03:29:13;7.80;99.90
10175;DHT22;18221;38.704;0.152;2023-03-01T03:31:42;7.80;99.90
10175;DHT22;18221;38.704;0.152;2023-03-01T03:34:11;7.80;99.90
10175;DHT22;18221;38.704;0.152;2023-03-01T03:36:43;7.80;99.90
10175;DHT22;18221;38.704;0.152;2023-03-01T03:39:11;7.80;99.90
10175;DHT22;18221;38.704;0.152;2023-03-01T03:41:40;7.70;99.90
10175;DHT22;18221;38.704;0.152;2023-03-01T03:44:08;7.70;99.90
10175;DHT22;18221;38.704;0.152;2023-03-01T03:46:36;7.70;99.90
10175;DHT22;18221;38.704;0.152;2023-03-01T03:49:06;7.60;99.90
10175;DHT22;18221;38.704;0.152;2023-03-01T03:51:34;7.60;99.90
10175;DHT22;18221;38.704;0.152;2023-03-01T03:54:03;7.60;99.90
10175;DHT22;18221;38.704;0.152;2023-03-01T03:56:31;7.60;99.90
10175;DHT22;18221;38.704;0.152;2023-03-01T03:58:59;7.50;99.90
10175;DHT22;18221;38.704;0.152;2023-03-01T04:01:27;7.50;99.90
10175;DHT22;18221;38.704;0.152;2023-03-01T04:03:55;7.50;99.90
10175;DHT22;18221;38.704;0.152;2023-03-01T04:06:31;7.50;99.90
10175;DHT22;18221;38.704;0.152;2023-03-01T04:08:59;7.50;99.90
10175;DHT22;18221;38.704;0.152;2023-03-01T04:11:29;7.40;99.90
10175;DHT22;18221;38.704;0.152;2023-03-01T04:13:58;7.40;99.90
10175;DHT22;18221;38.704;0.152;2023-03-01T04:16:27;7.40;99.90
10175;DHT22;18221;38.704;0.152;2023-03-01T04:18:55;7.40;99.90
10175;DHT22;18221;38.704;0.152;2023-03-01T04:21:25;7.40;99.90
10175;DHT22;18221;38.704;0.152;2023-03-01T04:23:55;7.40;99.90
10175;DHT22;18221;38.704;0.152;2023-03-01T04:26:23;7.40;99.90
10175;DHT22;18221;38.704;0.152;2023-03-01T04:28:52;7.40;99.90
10175;DHT22;18221;38.704;0.152;2023-03-01T04:31:21;7.30;99.90
10175;DHT22;18221;38.704;0.152;2023-03-01T04:33:50;7.30;99.90
10175;DHT22;18221;38.704;0.152;2023-03-01T04:36:21;7.30;99.90
10175;DHT22;18221;38.704;0.152;2023-03-01T04:38:54;7.30;99.90
10175;DHT22;18221;38.704;0.152;2023-03-01T04:41:24;7.30;99.90
10175;DHT22;18221;38.704;0.152;2023-03-01T04:43:53;7.30;99.90
10175;DHT22;18221;38.704;0.152;2023-03-01T04:46:21;7.20;99.90
10175;DHT22;18221;38.704;0.152;2023-03-01T04:48:49;7.20;99.90
10175;DHT22;18221;38.704;0.152;2023-03-01T04:51:18;7.10;99.90
10175;DHT22;18221;38.704;0.152;2023-03-01T04:53:46;7.10;99.90
10175;DHT22;18221;38.704;0.152;2023-03-01T04:56:16;7.10;99.90
10175;DHT22;18221;38.704;0.152;2023-03-01T04:58:45;7.10;99.90
10175;DHT22;18221;38.704;0.152;2023-03-01T05:01:15;7.10;99.90
10175;DHT22;18221;38.704;0.152;2023-03-01T05:03:47;6.50;99.90
10175;DHT22;18221;38.704;0.152;2023-03-01T05:06:17;7.00;99.90
10175;DHT22;18221;38.704;0.152;2023-03-01T05:08:47;7.00;99.90
10175;DHT22;18221;38.704;0.152;2023-03-01T05:11:17;7.00;99.90
10175;DHT22;18221;38.704;0.152;2023-03-01T05:13:45;6.90;99.90
10175;DHT22;18221;38.704;0.152;2023-03-01T05:16:15;6.90;99.90
10175;DHT22;18221;38.704;0.152;2023-03-01T05:18:46;6.80;99.90
10175;DHT22;18221;38.704;0.152;2023-03-01T05:21:16;6.80;99.90
10175;DHT22;18221;38.704;0.152;2023-03-01T05:23:45;6.80;99.90
10175;DHT22;18221;38.704;0.152;2023-03-01T05:26:14;6.70;99.90
10175;DHT22;18221;38.704;0.152;2023-03-01T05:28:45;6.70;99.90
10175;DHT22;18221;38.704;0.152;2023-03-01T05:31:13;6.70;99.90
10175;DHT22;18221;38.704;0.152;2023-03-01T05:33:41;6.70;99.90
10175;DHT22;18221;38.704;0.152;2023-03-01T05:36:10;6.70;99.90
10175;DHT22;18221;38.704;0.152;2023-03-01T05:38:38;6.70;99.90
10175;DHT22;18221;38.704;0.152;2023-03-01T05:41:14;6.60;99.90
10175;DHT22;18221;38.704;0.152;2023-03-01T05:43:44;6.60;99.90
10175;DHT22;18221;38.704;0.152;2023-03-01T05:46:12;6.60;99.90
10175;DHT22;18221;38.704;0.152;2023-03-01T05:48:41;6.60;99.90
10175;DHT22;18221;38.704;0.152;2023-03-01T05:51:09;6.60;99.90
10175;DHT22;18221;38.704;0.152;2023-03-01T05:53:38;6.60;99.90
10175;DHT22;18221;38.704;0.152;2023-03-01T05:56:06;6.60;99.90
10175;DHT22;18221;38.704;0.152;2023-03-01T05:58:35;6.60;99.90
10175;DHT22;18221;38.704;0.152;2023-03-01T06:01:10;6.60;99.90
10175;DHT22;18221;38.704;0.152;2023-03-01T06:03:39;6.60;99.90
10175;DHT22;18221;38.704;0.152;2023-03-01T06:06:07;6.70;99.90
10175;DHT22;18221;38.704;0.152;2023-03-01T06:08:36;6.60;99.90
10175;DHT22;18221;38.704;0.152;2023-03-01T06:11:04;6.60;99.90
10175;DHT22;18221;38.704;0.152;2023-03-01T06:13:33;6.60;99.90
10175;DHT22;18221;38.704;0.152;2023-03-01T06:16:05;6.60;99.90
10175;DHT22;18221;38.704;0.152;2023-03-01T06:18:34;6.60;99.90
10175;DHT22;18221;38.704;0.152;2023-03-01T06:21:03;6.60;99.90
10175;DHT22;18221;38.704;0.152;2023-03-01T06:23:32;6.60;99.90
10175;DHT22;18221;38.704;0.152;2023-03-01T06:26:05;6.60;99.90
10175;DHT22;18221;38.704;0.152;2023-03-01T06:28:34;6.60;99.90
10175;DHT22;18221;38.704;0.152;2023-03-01T06:31:05;6.60;99.90
10175;DHT22;18221;38.704;0.152;2023-03-01T06:33:34;6.60;99.90
10175;DHT22;18221;38.704;0.152;2023-03-01T06:36:03;6.50;99.90
10175;DHT22;18221;38.704;0.152;2023-03-01T06:38:32;6.50;99.90
10175;DHT22;18221;38.704;0.152;2023-03-01T06:41:01;6.50;99.90
10175;DHT22;18221;38.704;0.152;2023-03-01T06:43:29;6.50;99.90
10175;DHT22;18221;38.704;0.152;2023-03-01T06:45:57;6.40;99.90
10175;DHT22;18221;38.704;0.152;2023-03-01T06:48:28;6.40;99.90
10175;DHT22;18221;38.704;0.152;2023-03-01T06:50:58;6.40;99.90
10175;DHT22;18221;38.704;0.152;2023-03-01T06:53:27;6.40;99.90
10175;DHT22;18221;38.704;0.152;2023-03-01T06:55:56;6.40;99.90
10175;DHT22;18221;38.704;0.152;2023-03-01T06:58:26;6.40;99.90
10175;DHT22;18221;38.704;0.152;2023-03-01T07:00:54;6.40;99.90
10175;DHT22;18221;38.704;0.152;2023-03-01T07:03:22;6.40;99.90
10175;DHT22;18221;38.704;0.152;2023-03-01T07:05:52;6.50;99.90
10175;DHT22;18221;38.704;0.152;2023-03-01T07:08:20;6.40;99.90
10175;DHT22;18221;38.704;0.152;2023-03-01T07:10:54;6.40;99.90
10175;DHT22;18221;38.704;0.152;2023-03-01T07:13:22;6.40;99.90
10175;DHT22;18221;38.704;0.152;2023-03-01T07:15:51;6.50;99.90
10175;DHT22;18221;38.704;0.152;2023-03-01T07:18:19;6.40;99.90
10175;DHT22;18221;38.704;0.152;2023-03-01T07:20:47;6.40;99.90
10175;DHT22;18221;38.704;0.152;2023-03-01T07:23:17;6.40;99.90
10175;DHT22;18221;38.704;0.152;2023-03-01T07:25:51;6.40;99.90
10175;DHT22;18221;38.704;0.152;2023-03-01T07:28:20;6.40;99.90
10175;DHT22;18221;38.704;0.152;2023-03-01T07:30:50;6.40;99.90
10175;DHT22;18221;38.704;0.152;2023-03-01T07:33:18;6.40;99.90
10175;DHT22;18221;38.704;0.152;2023-03-01T07:35:46;6.50;99.90
10175;DHT22;18221;38.704;0.152;2023-03-01T07:38:15;6.50;99.90
10175;DHT22;18221;38.704;0.152;2023-03-01T07:40:45;6.50;99.90
10175;DHT22;18221;38.704;0.152;2023-03-01T07:43:13;6.50;99.90
10175;DHT22;18221;38.704;0.152;2023-03-01T07:45:41;6.40;99.90
10175;DHT22;18221;38.704;0.152;2023-03-01T07:48:09;6.40;99.90
10175;DHT22;18221;38.704;0.152;2023-03-01T07:50:38;6.40;99.90
10175;DHT22;18221;38.704;0.152;2023-03-01T07:53:06;6.40;99.90
10175;DHT22;18221;38.704;0.152;2023-03-01T07:55:36;6.50;99.90
10175;DHT22;18221;38.704;0.152;2023-03-01T07:58:05;6.50;99.90
10175;DHT22;18221;38.704;0.152;2023-03-01T08:00:36;6.60;99.90
10175;DHT22;18221;38.704;0.152;2023-03-01T08:03:04;6.60;99.90
10175;DHT22;18221;38.704;0.152;2023-03-01T08:05:32;6.60;99.90
10175;DHT22;18221;38.704;0.152;2023-03-01T08:08:01;6.60;99.90
10175;DHT22;18221;38.704;0.152;2023-03-01T08:10:29;6.60;99.90
10175;DHT22;18221;38.704;0.152;2023-03-01T08:12:59;6.70;99.90
10175;DHT22;18221;38.704;0.152;2023-03-01T08:15:27;6.80;99.90
10175;DHT22;18221;38.704;0.152;2023-03-01T08:17:55;6.90;99.90
10175;DHT22;18221;38.704;0.152;2023-03-01T08:20:24;7.00;99.90
10175;DHT22;18221;38.704;0.152;2023-03-01T08:22:52;7.10;99.90
10175;DHT22;18221;38.704;0.152;2023-03-01T08:25:20;7.10;99.90
10175;DHT22;18221;38.704;0.152;2023-03-01T08:27:49;7.10;99.90
10175;DHT22;18221;38.704;0.152;2023-03-01T08:30:19;7.20;99.90
10175;DHT22;18221;38.704;0.152;2023-03-01T08:32:49;7.20;99.90
10175;DHT22;18221;38.704;0.152;2023-03-01T08:35:19;7.20;99.90
10175;DHT22;18221;38.704;0.152;2023-03-01T08:37:48;7.20;99.90
10175;DHT22;18221;38.704;0.152;2023-03-01T08:40:17;7.20;99.90
10175;DHT22;18221;38.704;0.152;2023-03-01T08:42:45;7.20;99.90
10175;DHT22;18221;38.704;0.152;2023-03-01T08:45:14;7.20;99.90
10175;DHT22;18221;38.704;0.152;2023-03-01T08:47:45;7.30;99.90
10175;DHT22;18221;38.704;0.152;2023-03-01T08:50:14;7.20;99.90
10175;DHT22;18221;38.704;0.152;2023-03-01T08:52:43;7.30;99.90
10175;DHT22;18221;38.704;0.152;2023-03-01T08:55:11;6.10;99.90
10175;DHT22;18221;38.704;0.152;2023-03-01T08:57:41;7.30;99.90
10175;DHT22;18221;38.704;0.152;2023-03-01T09:00:10;7.40;99.90
10175;DHT22;18221;38.704;0.152;2023-03-01T09:02:40;7.40;99.90
10175;DHT22;18221;38.704;0.152;2023-03-01T09:05:10;7.50;99.90
10175;DHT22;18221;38.704;0.152;2023-03-01T09:07:39;7.50;99.90
10175;DHT22;18221;38.704;0.152;2023-03-01T09:10:08;7.50;99.90
10175;DHT22;18221;38.704;0.152;2023-03-01T09:12:37;7.50;99.90
10175;DHT22;18221;38.704;0.152;2023-03-01T09:15:07;7.60;99.90
10175;DHT22;18221;38.704;0.152;2023-03-01T09:17:36;7.60;99.90
10175;DHT22;18221;38.704;0.152;2023-03-01T09:20:05;7.60;99.90
10175;DHT22;18221;38.704;0.152;2023-03-01T09:22:36;7.70;99.90
10175;DHT22;18221;38.704;0.152;2023-03-01T09:25:05;7.70;99.90
10175;DHT22;18221;38.704;0.152;2023-03-01T09:27:35;7.70;99.90
10175;DHT22;18221;38.704;0.152;2023-03-01T09:30:05;7.80;99.90
10175;DHT22;18221;38.704;0.152;2023-03-01T09:32:34;7.80;99.90
10175;DHT22;18221;38.704;0.152;2023-03-01T09:35:04;7.90;99.90
10175;DHT22;18221;38.704;0.152;2023-03-01T09:37:35;7.90;99.90
10175;DHT22;18221;38.704;0.152;2023-03-01T09:40:06;7.90;99.90
10175;DHT22;18221;38.704;0.152;2023-03-01T09:42:52;7.90;99.90
10175;DHT22;18221;38.704;0.152;2023-03-01T09:45:33;7.90;99.90
10175;DHT22;18221;38.704;0.152;2023-03-01T09:48:05;7.90;99.90
10175;DHT22;18221;38.704;0.152;2023-03-01T09:50:41;8.00;99.90
10175;DHT22;18221;38.704;0.152;2023-03-01T09:53:16;8.00;99.90
10175;DHT22;18221;38.704;0.152;2023-03-01T09:55:50;8.00;99.90
10175;DHT22;18221;38.704;0.152;2023-03-01T09:58:38;8.00;99.90
10175;DHT22;18221;38.704;0.152;2023-03-01T10:01:27;8.00;99.90
10175;DHT22;18221;38.704;0.152;2023-03-01T10:04:20;8.00;99.90
10175;DHT22;18221;38.704;0.152;2023-03-01T10:07:11;8.10;99.90
10175;DHT22;18221;38.704;0.152;2023-03-01T10:09:50;8.10;99.90
10175;DHT22;18221;38.704;0.152;2023-03-01T10:12:22;8.20;99.90
10175;DHT22;18221;38.704;0.152;2023-03-01T10:14:57;8.20;99.90
10175;DHT22;18221;38.704;0.152;2023-03-01T10:17:39;8.20;99.90
10175;DHT22;18221;38.704;0.152;2023-03-01T10:20:20;8.20;99.90
10175;DHT22;18221;38.704;0.152;2023-03-01T10:22:50;8.20;99.90
10175;DHT22;18221;38.704;0.152;2023-03-01T10:25:41;8.20;99.90
10175;DHT22;18221;38.704;0.152;2023-03-01T10:28:17;8.30;99.90
10175;DHT22;18221;38.704;0.152;2023-03-01T10:30:53;8.40;99.90
10175;DHT22;18221;38.704;0.152;2023-03-01T10:33:23;8.50;99.90
10175;DHT22;18221;38.704;0.152;2023-03-01T10:35:55;8.60;99.90
10175;DHT22;18221;38.704;0.152;2023-03-01T10:38:24;8.50;99.90
10175;DHT22;18221;38.704;0.152;2023-03-01T10:40:56;8.60;99.90
10175;DHT22;18221;38.704;0.152;2023-03-01T10:43:42;8.60;99.90
10175;DHT22;18221;38.704;0.152;2023-03-01T10:46:23;8.60;99.90
10175;DHT22;18221;38.704;0.152;2023-03-01T10:49:14;8.70;99.90
10175;DHT22;18221;38.704;0.152;2023-03-01T10:51:46;8.70;99.90
10175;DHT22;18221;38.704;0.152;2023-03-01T10:54:19;8.70;99.90
10175;DHT22;18221;38.704;0.152;2023-03-01T10:56:52;8.80;99.90
10175;DHT22;18221;38.704;0.152;2023-03-01T10:59:29;8.80;99.90
10175;DHT22;18221;38.704;0.152;2023-03-01T11:02:16;8.80;99.90
10175;DHT22;18221;38.704;0.152;2023-03-01T11:04:58;8.80;99.90
10175;DHT22;18221;38.704;0.152;2023-03-01T11:07:28;8.90;99.90
10175;DHT22;18221;38.704;0.152;2023-03-01T11:09:57;9.00;99.90
10175;DHT22;18221;38.704;0.152;2023-03-01T11:12:27;9.00;99.90
10175;DHT22;18221;38.704;0.152;2023-03-01T11:14:56;9.00;99.90
10175;DHT22;18221;38.704;0.152;2023-03-01T11:17:27;9.20;99.90
10175;DHT22;18221;38.704;0.152;2023-03-01T11:20:05;9.10;99.90
10175;DHT22;18221;38.704;0.152;2023-03-01T11:22:47;9.20;99.90
10175;DHT22;18221;38.704;0.152;2023-03-01T11:25:20;9.30;99.90
10175;DHT22;18221;38.704;0.152;2023-03-01T11:27:54;9.40;99.90
10175;DHT22;18221;38.704;0.152;2023-03-01T11:30:27;9.50;99.90
10175;DHT22;18221;38.704;0.152;2023-03-01T11:33:05;8.20;99.90
10175;DHT22;18221;38.704;0.152;2023-03-01T11:35:50;9.60;99.90
10175;DHT22;18221;38.704;0.152;2023-03-01T11:38:26;9.60;99.90
10175;DHT22;18221;38.704;0.152;2023-03-01T11:41:00;9.60;99.90
10175;DHT22;18221;38.704;0.152;2023-03-01T11:43:40;9.50;99.90
10175;DHT22;18221;38.704;0.152;2023-03-01T11:46:43;9.50;99.90
10175;DHT22;18221;38.704;0.152;2023-03-01T11:49:55;9.50;99.90
10175;DHT22;18221;38.704;0.152;2023-03-01T11:52:48;9.60;99.90
10175;DHT22;18221;38.704;0.152;2023-03-01T11:55:40;9.60;99.90
10175;DHT22;18221;38.704;0.152;2023-03-01T11:58:48;9.50;99.90
10175;DHT22;18221;38.704;0.152;2023-03-01T12:01:46;9.60;99.90
10175;DHT22;18221;38.704;0.152;2023-03-01T12:08:11;9.70;99.90
10175;DHT22;18221;38.704;0.152;2023-03-01T12:10:52;9.70;99.90
10175;DHT22;18221;38.704;0.152;2023-03-01T12:16:59;9.80;99.90
10175;DHT22;18221;38.704;0.152;2023-03-01T12:20:07;9.90;99.90
10175;DHT22;18221;38.704;0.152;2023-03-01T12:23:15;10.10;99.90
10175;DHT22;18221;38.704;0.152;2023-03-01T12:26:00;10.00;99.90
10175;DHT22;18221;38.704;0.152;2023-03-01T12:29:02;10.00;99.90
10175;DHT22;18221;38.704;0.152;2023-03-01T12:32:15;10.10;99.90
10175;DHT22;18221;38.704;0.152;2023-03-01T12:35:26;10.00;99.90
10175;DHT22;18221;38.704;0.152;2023-03-01T12:38:17;9.80;99.90
10175;DHT22;18221;38.704;0.152;2023-03-01T12:41:33;9.70;99.90
10175;DHT22;18221;38.704;0.152;2023-03-01T12:44:22;9.60;99.90
10175;DHT22;18221;38.704;0.152;2023-03-01T12:47:07;9.60;99.90
10175;DHT22;18221;38.704;0.152;2023-03-01T12:49:50;9.70;99.90
10175;DHT22;18221;38.704;0.152;2023-03-01T12:52:29;9.70;99.90
10175;DHT22;18221;38.704;0.152;2023-03-01T12:55:16;9.60;99.90
10175;DHT22;18221;38.704;0.152;2023-03-01T12:58:00;9.60;99.90
10175;DHT22;18221;38.704;0.152;2023-03-01T13:00:41;9.80;99.90
10175;DHT22;18221;38.704;0.152;2023-03-01T13:03:25;9.90;99.90
10175;DHT22;18221;38.704;0.152;2023-03-01T13:06:11;10.10;99.90
10175;DHT22;18221;38.704;0.152;2023-03-01T13:08:47;10.40;99.90
10175;DHT22;18221;38.704;0.152;2023-03-01T13:11:23;10.60;99.90
10175;DHT22;18221;38.704;0.152;2023-03-01T13:13:51;10.80;99.90
10175;DHT22;18221;38.704;0.152;2023-03-01T13:16:42;10.70;99.90
10175;DHT22;18221;38.704;0.152;2023-03-01T13:19:16;10.60;99.90
10175;DHT22;18221;38.704;0.152;2023-03-01T13:21:47;10.80;99.90
10175;DHT22;18221;38.704;0.152;2023-03-01T13:24:27;10.70;99.90
10175;DHT22;18221;38.704;0.152;2023-03-01T13:27:11;10.60;99.90
10175;DHT22;18221;38.704;0.152;2023-03-01T13:29:57;10.60;99.90
10175;DHT22;18221;38.704;0.152;2023-03-01T13:32:33;10.50;99.90
10175;DHT22;18221;38.704;0.152;2023-03-01T13:35:42;10.50;99.90
10175;DHT22;18221;38.704;0.152;2023-03-01T13:41:14;11.00;99.90
10175;DHT22;18221;38.704;0.152;2023-03-01T13:43:46;11.00;99.90
10175;DHT22;18221;38.704;0.152;2023-03-01T13:46:20;11.10;99.90
10175;DHT22;18221;38.704;0.152;2023-03-01T13:48:54;11.30;99.90
10175;DHT22;18221;38.704;0.152;2023-03-01T13:51:26;11.30;99.90
10175;DHT22;18221;38.704;0.152;2023-03-01T13:53:58;11.30;99.90
10175;DHT22;18221;38.704;0.152;2023-03-01T13:56:29;11.40;99.90
10175;DHT22;18221;38.704;0.152;2023-03-01T13:59:06;11.40;99.90
10175;DHT22;18221;38.704;0.152;2023-03-01T14:01:41;11.50;99.90
10175;DHT22;18221;38.704;0.152;2023-03-01T14:04:21;11.40;99.90
10175;DHT22;18221;38.704;0.152;2023-03-01T14:06:52;11.30;99.90
10175;DHT22;18221;38.704;0.152;2023-03-01T14:09:38;11.30;99.90
10175;DHT22;18221;38.704;0.152;2023-03-01T14:12:22;11.20;99.90
10175;DHT22;18221;38.704;0.152;2023-03-01T14:14:59;11.20;99.90
10175;DHT22;18221;38.704;0.152;2023-03-01T14:17:55;11.20;99.90
10175;DHT22;18221;38.704;0.152;2023-03-01T14:20:37;11.20;99.90
10175;DHT22;18221;38.704;0.152;2023-03-01T14:23:11;11.30;99.90
10175;DHT22;18221;38.704;0.152;2023-03-01T14:25:48;11.40;99.90
10175;DHT22;18221;38.704;0.152;2023-03-01T14:28:19;11.40;99.90
10175;DHT22;18221;38.704;0.152;2023-03-01T14:30:51;11.50;99.90
10175;DHT22;18221;38.704;0.152;2023-03-01T14:33:23;11.50;99.90
10175;DHT22;18221;38.704;0.152;2023-03-01T14:35:56;11.60;99.90
10175;DHT22;18221;38.704;0.152;2023-03-01T14:38:32;11.60;99.90
10175;DHT22;18221;38.704;0.152;2023-03-01T14:41:05;11.50;99.90
10175;DHT22;18221;38.704;0.152;2023-03-01T14:43:37;11.40;99.90
10175;DHT22;18221;38.704;0.152;2023-03-01T14:46:18;11.50;99.90
10175;DHT22;18221;38.704;0.152;2023-03-01T14:48:50;11.50;99.90
10175;DHT22;18221;38.704;0.152;2023-03-01T14:51:22;11.50;99.90
10175;DHT22;18221;38.704;0.152;2023-03-01T14:53:51;11.60;99.90
10175;DHT22;18221;38.704;0.152;2023-03-01T14:56:19;11.60;99.90
10175;DHT22;18221;38.704;0.152;2023-03-01T14:58:52;11.60;99.90
10175;DHT22;18221;38.704;0.152;2023-03-01T15:01:21;11.60;99.90
10175;DHT22;18221;38.704;0.152;2023-03-01T15:03:50;11.60;99.90
10175;DHT22;18221;38.704;0.152;2023-03-01T15:06:22;11.60;99.90
10175;DHT22;18221;38.704;0.152;2023-03-01T15:08:52;11.60;99.90
10175;DHT22;18221;38.704;0.152;2023-03-01T15:11:24;11.60;99.90
10175;DHT22;18221;38.704;0.152;2023-03-01T15:13:55;11.60;99.90
10175;DHT22;18221;38.704;0.152;2023-03-01T15:16:26;11.40;99.90
10175;DHT22;18221;38.704;0.152;2023-03-01T15:18:58;11.40;99.90
10175;DHT22;18221;38.704;0.152;2023-03-01T15:21:31;11.40;99.90
10175;DHT22;18221;38.704;0.152;2023-03-01T15:24:05;11.60;99.90
10175;DHT22;18221;38.704;0.152;2023-03-01T15:26:52;11.70;99.90
10175;DHT22;18221;38.704;0.152;2023-03-01T15:29:24;11.70;99.90
10175;DHT22;18221;38.704;0.152;2023-03-01T15:31:58;11.60;99.90
10175;DHT22;18221;38.704;0.152;2023-03-01T15:34:30;11.60;99.90
10175;DHT22;18221;38.704;0.152;2023-03-01T15:37:03;11.60;99.90
10175;DHT22;18221;38.704;0.152;2023-03-01T15:39:36;11.50;99.90
10175;DHT22;18221;38.704;0.152;2023-03-01T15:42:11;11.60;99.90
10175;DHT22;18221;38.704;0.152;2023-03-01T15:44:42;11.60;99.90
10175;DHT22;18221;38.704;0.152;2023-03-01T15:50:32;11.60;99.90
10175;DHT22;18221;38.704;0.152;2023-03-01T15:53:09;11.50;99.90
10175;DHT22;18221;38.704;0.152;2023-03-01T15:55:40;11.60;99.90
10175;DHT22;18221;38.704;0.152;2023-03-01T15:58:12;11.60;99.90
10175;DHT22;18221;38.704;0.152;2023-03-01T16:00:42;11.60;99.90
10175;DHT22;18221;38.704;0.152;2023-03-01T16:03:11;11.60;99.90
10175;DHT22;18221;38.704;0.152;2023-03-01T16:05:39;11.50;99.90
10175;DHT22;18221;38.704;0.152;2023-03-01T16:08:09;11.40;99.90
10175;DHT22;18221;38.704;0.152;2023-03-01T16:10:38;11.30;99.90
10175;DHT22;18221;38.704;0.152;2023-03-01T16:13:13;11.30;99.90
10175;DHT22;18221;38.704;0.152;2023-03-01T16:15:41;11.30;99.90
10175;DHT22;18221;38.704;0.152;2023-03-01T16:18:09;11.30;99.90
10175;DHT22;18221;38.704;0.152;2023-03-01T16:20:38;11.30;99.90
10175;DHT22;18221;38.704;0.152;2023-03-01T16:23:10;11.20;99.90
10175;DHT22;18221;38.704;0.152;2023-03-01T16:25:38;11.10;99.90
10175;DHT22;18221;38.704;0.152;2023-03-01T16:28:07;11.00;99.90
10175;DHT22;18221;38.704;0.152;2023-03-01T16:30:36;10.90;99.90
10175;DHT22;18221;38.704;0.152;2023-03-01T16:33:06;10.90;99.90
10175;DHT22;18221;38.704;0.152;2023-03-01T16:35:39;10.80;99.90